sensor_id;sensor_type;location;lat;lon;timestamp;P1;durP1;ratioP1;P2;durP2;ratioP2
50249;SDS011;36133;42.522;27.456;2022-09-12T00:00:40;2.90;;;1.52;;
50249;SDS011;36133;42.522;27.456;2022-09-12T00:03:05;2.83;;;1.45;;
50249;SDS011;36133;42.522;27.456;2022-09-12T00:05:31;2.00;;;1.30;;
50249;SDS011;36133;42.522;27.456;2022-09-12T00:07:57;3.17;;;1.17;;
50249;SDS011;36133;42.522;27.456;2022-09-12T00:10:23;2.80;;;1.20;;
50249;SDS011;36133;42.522;27.456;2022-09-12T00:12:48;9.32;;;1.70;;
50249;SDS011;36133;42.522;27.456;2022-09-12T00:15:14;6.50;;;1.50;;
50249;SDS011;36133;42.522;27.456;2022-09-12T00:17:39;4.78;;;1.30;;
50249;SDS011;36133;42.522;27.456;2022-09-12T00:20:05;5.45;;;1.70;;
50249;SDS011;36133;42.522;27.456;2022-09-12T00:22:33;5.45;;;1.52;;
50249;SDS011;36133;42.522;27.456;2022-09-12T00:24:59;4.85;;;1.35;;
50249;SDS011;36133;42.522;27.456;2022-09-12T00:27:25;3.20;;;1.67;;
50249;SDS011;36133;42.522;27.456;2022-09-12T00:29:51;5.68;;;1.73;;
50249;SDS011;36133;42.522;27.456;2022-09-12T00:32:17;6.00;;;1.90;;
50249;SDS011;36133;42.522;27.456;2022-09-12T00:34:42;6.25;;;2.10;;
50249;SDS011;36133;42.522;27.456;2022-09-12T00:37:08;2.63;;;1.80;;
50249;SDS011;36133;42.522;27.456;2022-09-12T00:39:33;3.38;;;1.80;;
50249;SDS011;36133;42.522;27.456;2022-09-12T00:41:59;2.28;;;1.75;;
50249;SDS011;36133;42.522;27.456;2022-09-12T00:49:31;6.35;;;2.67;;
50249;SDS011;36133;42.522;27.456;2022-09-12T00:54:45;4.28;;;2.10;;
50249;SDS011;36133;42.522;27.456;2022-09-12T00:57:17;5.72;;;2.00;;
50249;SDS011;36133;42.522;27.456;2022-09-12T00:59:46;3.97;;;2.10;;
50249;SDS011;36133;42.522;27.456;2022-09-12T01:02:14;2.20;;;1.80;;
50249;SDS011;36133;42.522;27.456;2022-09-12T01:04:41;4.28;;;1.85;;
50249;SDS011;36133;42.522;27.456;2022-09-12T01:07:08;4.70;;;1.75;;
50249;SDS011;36133;42.522;27.456;2022-09-12T01:09:35;3.10;;;1.63;;
50249;SDS011;36133;42.522;27.456;2022-09-12T01:12:02;5.45;;;1.80;;
50249;SDS011;36133;42.522;27.456;2022-09-12T01:14:31;2.90;;;1.90;;
50249;SDS011;36133;42.522;27.456;2022-09-12T01:16:57;5.63;;;1.95;;
50249;SDS011;36133;42.522;27.456;2022-09-12T01:19:38;3.72;;;1.83;;
50249;SDS011;36133;42.522;27.456;2022-09-12T01:33:20;4.80;;;1.67;;
50249;SDS011;36133;42.522;27.456;2022-09-12T01:44:54;3.63;;;1.80;;
50249;SDS011;36133;42.522;27.456;2022-09-12T01:50:09;1.88;;;1.33;;
50249;SDS011;36133;42.522;27.456;2022-09-12T01:52:43;3.13;;;1.60;;
50249;SDS011;36133;42.522;27.456;2022-09-12T01:55:24;4.53;;;1.85;;
50249;SDS011;36133;42.522;27.456;2022-09-12T01:58:04;3.42;;;1.83;;
50249;SDS011;36133;42.522;27.456;2022-09-12T02:00:38;5.75;;;1.77;;
50249;SDS011;36133;42.522;27.456;2022-09-12T02:03:19;5.95;;;1.70;;
50249;SDS011;36133;42.522;27.456;2022-09-12T02:05:55;2.72;;;1.50;;
50249;SDS011;36133;42.522;27.456;2022-09-12T02:08:27;2.25;;;1.33;;
50249;SDS011;36133;42.522;27.456;2022-09-12T02:11:02;1.77;;;1.42;;
50249;SDS011;36133;42.522;27.456;2022-09-12T02:16:05;2.55;;;1.30;;
50249;SDS011;36133;42.522;27.456;2022-09-12T02:21:04;2.38;;;1.20;;
50249;SDS011;36133;42.522;27.456;2022-09-12T02:23:30;1.42;;;1.08;;
50249;SDS011;36133;42.522;27.456;2022-09-12T02:26:00;1.88;;;1.42;;
50249;SDS011;36133;42.522;27.456;2022-09-12T02:28:33;2.33;;;1.33;;
50249;SDS011;36133;42.522;27.456;2022-09-12T02:33:43;2.60;;;1.10;;
50249;SDS011;36133;42.522;27.456;2022-09-12T02:38:55;3.20;;;1.48;;
50249;SDS011;36133;42.522;27.456;2022-09-12T02:41:21;2.58;;;1.20;;
50249;SDS011;36133;42.522;27.456;2022-09-12T02:43:47;2.08;;;1.25;;
50249;SDS011;36133;42.522;27.456;2022-09-12T02:46:20;2.03;;;1.20;;
50249;SDS011;36133;42.522;27.456;2022-09-12T02:48:49;3.13;;;1.27;;
50249;SDS011;36133;42.522;27.456;2022-09-12T02:51:14;4.00;;;1.33;;
50249;SDS011;36133;42.522;27.456;2022-09-12T02:53:40;2.10;;;1.48;;
50249;SDS011;36133;42.522;27.456;2022-09-12T02:56:07;5.22;;;1.77;;
50249;SDS011;36133;42.522;27.456;2022-09-12T02:58:37;4.07;;;1.55;;
50249;SDS011;36133;42.522;27.456;2022-09-12T03:03:57;3.97;;;1.50;;
50249;SDS011;36133;42.522;27.456;2022-09-12T03:12:16;8.77;;;2.38;;
50249;SDS011;36133;42.522;27.456;2022-09-12T03:14:56;5.05;;;2.28;;
50249;SDS011;36133;42.522;27.456;2022-09-12T03:22:59;4.40;;;2.08;;
50249;SDS011;36133;42.522;27.456;2022-09-12T03:25:31;4.30;;;1.98;;
50249;SDS011;36133;42.522;27.456;2022-09-12T03:28:01;5.15;;;1.70;;
50249;SDS011;36133;42.522;27.456;2022-09-12T03:30:38;4.47;;;1.90;;
50249;SDS011;36133;42.522;27.456;2022-09-12T03:33:05;3.28;;;1.92;;
50249;SDS011;36133;42.522;27.456;2022-09-12T03:35:34;4.68;;;1.77;;
50249;SDS011;36133;42.522;27.456;2022-09-12T03:38:00;2.28;;;1.70;;
50249;SDS011;36133;42.522;27.456;2022-09-12T03:40:25;4.68;;;1.92;;
50249;SDS011;36133;42.522;27.456;2022-09-12T03:42:51;3.78;;;1.50;;
50249;SDS011;36133;42.522;27.456;2022-09-12T03:45:17;2.08;;;1.48;;
50249;SDS011;36133;42.522;27.456;2022-09-12T03:47:42;4.50;;;1.63;;
50249;SDS011;36133;42.522;27.456;2022-09-12T03:50:08;5.63;;;1.77;;
50249;SDS011;36133;42.522;27.456;2022-09-12T03:52:33;3.72;;;1.75;;
50249;SDS011;36133;42.522;27.456;2022-09-12T03:54:59;2.35;;;1.75;;
50249;SDS011;36133;42.522;27.456;2022-09-12T03:57:25;3.25;;;1.58;;
50249;SDS011;36133;42.522;27.456;2022-09-12T03:59:50;2.22;;;1.70;;
50249;SDS011;36133;42.522;27.456;2022-09-12T04:02:16;3.15;;;2.03;;
50249;SDS011;36133;42.522;27.456;2022-09-12T04:04:42;6.13;;;1.80;;
50249;SDS011;36133;42.522;27.456;2022-09-12T04:07:09;4.35;;;1.88;;
50249;SDS011;36133;42.522;27.456;2022-09-12T04:09:35;4.50;;;1.70;;
50249;SDS011;36133;42.522;27.456;2022-09-12T04:12:01;5.55;;;2.13;;
50249;SDS011;36133;42.522;27.456;2022-09-12T04:14:26;7.53;;;2.15;;
50249;SDS011;36133;42.522;27.456;2022-09-12T04:16:52;4.53;;;2.42;;
50249;SDS011;36133;42.522;27.456;2022-09-12T04:19:17;4.22;;;1.92;;
50249;SDS011;36133;42.522;27.456;2022-09-12T04:21:43;4.80;;;2.05;;
50249;SDS011;36133;42.522;27.456;2022-09-12T04:24:08;2.67;;;1.77;;
50249;SDS011;36133;42.522;27.456;2022-09-12T04:26:34;3.15;;;2.10;;
50249;SDS011;36133;42.522;27.456;2022-09-12T04:28:59;3.03;;;1.95;;
50249;SDS011;36133;42.522;27.456;2022-09-12T04:31:25;3.50;;;1.80;;
50249;SDS011;36133;42.522;27.456;2022-09-12T04:33:55;5.32;;;2.00;;
50249;SDS011;36133;42.522;27.456;2022-09-12T04:36:23;4.68;;;2.40;;
50249;SDS011;36133;42.522;27.456;2022-09-12T04:38:50;3.08;;;2.17;;
50249;SDS011;36133;42.522;27.456;2022-09-12T04:41:22;4.70;;;2.00;;
50249;SDS011;36133;42.522;27.456;2022-09-12T04:43:51;4.20;;;2.60;;
50249;SDS011;36133;42.522;27.456;2022-09-12T04:46:18;8.07;;;2.78;;
50249;SDS011;36133;42.522;27.456;2022-09-12T04:48:44;7.40;;;2.60;;
50249;SDS011;36133;42.522;27.456;2022-09-12T04:51:15;8.68;;;2.78;;
50249;SDS011;36133;42.522;27.456;2022-09-12T04:53:42;7.55;;;2.63;;
50249;SDS011;36133;42.522;27.456;2022-09-12T04:56:12;6.22;;;2.50;;
50249;SDS011;36133;42.522;27.456;2022-09-12T04:58:38;3.72;;;2.80;;
50249;SDS011;36133;42.522;27.456;2022-09-12T05:01:07;5.00;;;2.65;;
50249;SDS011;36133;42.522;27.456;2022-09-12T05:03:34;4.30;;;2.65;;
50249;SDS011;36133;42.522;27.456;2022-09-12T05:06:03;10.80;;;3.00;;
50249;SDS011;36133;42.522;27.456;2022-09-12T05:08:30;6.25;;;2.72;;
50249;SDS011;36133;42.522;27.456;2022-09-12T05:11:00;9.02;;;3.42;;
50249;SDS011;36133;42.522;27.456;2022-09-12T05:13:28;6.63;;;2.95;;
50249;SDS011;36133;42.522;27.456;2022-09-12T05:15:54;4.38;;;2.72;;
50249;SDS011;36133;42.522;27.456;2022-09-12T05:18:21;3.88;;;2.83;;
50249;SDS011;36133;42.522;27.456;2022-09-12T05:20:46;6.43;;;2.90;;
50249;SDS011;36133;42.522;27.456;2022-09-12T05:23:12;5.35;;;2.72;;
50249;SDS011;36133;42.522;27.456;2022-09-12T05:25:37;4.63;;;2.60;;
50249;SDS011;36133;42.522;27.456;2022-09-12T05:28:03;7.13;;;2.42;;
50249;SDS011;36133;42.522;27.456;2022-09-12T05:30:28;3.40;;;2.22;;
50249;SDS011;36133;42.522;27.456;2022-09-12T05:32:54;4.40;;;2.00;;
50249;SDS011;36133;42.522;27.456;2022-09-12T05:35:20;3.15;;;1.77;;
50249;SDS011;36133;42.522;27.456;2022-09-12T05:37:46;4.28;;;2.03;;
50249;SDS011;36133;42.522;27.456;2022-09-12T05:40:11;3.15;;;1.90;;
50249;SDS011;36133;42.522;27.456;2022-09-12T05:42:41;3.92;;;2.00;;
50249;SDS011;36133;42.522;27.456;2022-09-12T05:45:07;5.90;;;2.55;;
50249;SDS011;36133;42.522;27.456;2022-09-12T05:47:32;5.30;;;2.63;;
50249;SDS011;36133;42.522;27.456;2022-09-12T05:49:58;4.47;;;2.15;;
50249;SDS011;36133;42.522;27.456;2022-09-12T05:52:23;8.00;;;2.40;;
50249;SDS011;36133;42.522;27.456;2022-09-12T05:54:49;5.28;;;2.65;;
50249;SDS011;36133;42.522;27.456;2022-09-12T05:57:14;9.10;;;2.80;;
50249;SDS011;36133;42.522;27.456;2022-09-12T05:59:40;5.40;;;2.85;;
50249;SDS011;36133;42.522;27.456;2022-09-12T06:02:07;5.53;;;2.67;;
50249;SDS011;36133;42.522;27.456;2022-09-12T06:04:34;5.10;;;2.22;;
50249;SDS011;36133;42.522;27.456;2022-09-12T06:06:59;4.43;;;2.38;;
50249;SDS011;36133;42.522;27.456;2022-09-12T06:09:25;3.28;;;2.42;;
50249;SDS011;36133;42.522;27.456;2022-09-12T06:11:52;6.10;;;2.90;;
50249;SDS011;36133;42.522;27.456;2022-09-12T06:14:17;3.47;;;2.55;;
50249;SDS011;36133;42.522;27.456;2022-09-12T06:16:43;6.30;;;2.72;;
50249;SDS011;36133;42.522;27.456;2022-09-12T06:19:14;2.38;;;2.13;;
50249;SDS011;36133;42.522;27.456;2022-09-12T06:21:41;4.40;;;2.15;;
50249;SDS011;36133;42.522;27.456;2022-09-12T06:24:07;4.32;;;2.55;;
50249;SDS011;36133;42.522;27.456;2022-09-12T06:26:33;7.30;;;2.83;;
50249;SDS011;36133;42.522;27.456;2022-09-12T06:28:59;4.47;;;2.10;;
50249;SDS011;36133;42.522;27.456;2022-09-12T06:31:26;4.68;;;2.38;;
50249;SDS011;36133;42.522;27.456;2022-09-12T06:33:58;4.53;;;2.00;;
50249;SDS011;36133;42.522;27.456;2022-09-12T06:36:27;3.42;;;2.20;;
50249;SDS011;36133;42.522;27.456;2022-09-12T06:39:01;2.38;;;1.77;;
50249;SDS011;36133;42.522;27.456;2022-09-12T06:41:29;4.93;;;1.90;;
50249;SDS011;36133;42.522;27.456;2022-09-12T06:43:57;4.05;;;2.00;;
50249;SDS011;36133;42.522;27.456;2022-09-12T06:46:24;2.42;;;1.70;;
50249;SDS011;36133;42.522;27.456;2022-09-12T06:48:50;2.63;;;1.80;;
50249;SDS011;36133;42.522;27.456;2022-09-12T06:51:17;3.97;;;2.00;;
50249;SDS011;36133;42.522;27.456;2022-09-12T06:53:47;3.65;;;1.80;;
50249;SDS011;36133;42.522;27.456;2022-09-12T06:56:20;3.13;;;1.52;;
50249;SDS011;36133;42.522;27.456;2022-09-12T06:58:47;2.80;;;1.50;;
50249;SDS011;36133;42.522;27.456;2022-09-12T07:01:16;4.47;;;1.95;;
50249;SDS011;36133;42.522;27.456;2022-09-12T07:03:46;5.18;;;2.13;;
50249;SDS011;36133;42.522;27.456;2022-09-12T07:06:14;3.67;;;2.03;;
50249;SDS011;36133;42.522;27.456;2022-09-12T07:08:41;6.90;;;1.92;;
50249;SDS011;36133;42.522;27.456;2022-09-12T07:11:10;3.22;;;1.88;;
50249;SDS011;36133;42.522;27.456;2022-09-12T07:13:39;5.15;;;2.10;;
50249;SDS011;36133;42.522;27.456;2022-09-12T07:16:06;1.98;;;1.40;;
50249;SDS011;36133;42.522;27.456;2022-09-12T07:18:32;6.75;;;1.52;;
50249;SDS011;36133;42.522;27.456;2022-09-12T07:20:59;3.28;;;1.40;;
50249;SDS011;36133;42.522;27.456;2022-09-12T07:23:26;2.75;;;1.40;;
50249;SDS011;36133;42.522;27.456;2022-09-12T07:25:53;9.48;;;2.25;;
50249;SDS011;36133;42.522;27.456;2022-09-12T07:28:24;3.83;;;2.03;;
50249;SDS011;36133;42.522;27.456;2022-09-12T07:30:51;3.30;;;1.70;;
50249;SDS011;36133;42.522;27.456;2022-09-12T07:33:21;5.18;;;1.48;;
50249;SDS011;36133;42.522;27.456;2022-09-12T07:35:47;6.80;;;1.60;;
50249;SDS011;36133;42.522;27.456;2022-09-12T07:38:13;5.03;;;1.92;;
50249;SDS011;36133;42.522;27.456;2022-09-12T07:40:40;3.78;;;1.83;;
50249;SDS011;36133;42.522;27.456;2022-09-12T07:43:06;4.55;;;1.55;;
50249;SDS011;36133;42.522;27.456;2022-09-12T07:45:32;2.25;;;1.25;;
50249;SDS011;36133;42.522;27.456;2022-09-12T07:47:57;3.67;;;1.35;;
50249;SDS011;36133;42.522;27.456;2022-09-12T07:50:23;2.72;;;1.40;;
50249;SDS011;36133;42.522;27.456;2022-09-12T07:52:48;2.83;;;1.00;;
50249;SDS011;36133;42.522;27.456;2022-09-12T07:55:14;2.80;;;1.30;;
50249;SDS011;36133;42.522;27.456;2022-09-12T07:57:48;4.03;;;1.33;;
50249;SDS011;36133;42.522;27.456;2022-09-12T08:00:43;3.08;;;1.55;;
50249;SDS011;36133;42.522;27.456;2022-09-12T08:03:10;2.10;;;1.30;;
50249;SDS011;36133;42.522;27.456;2022-09-12T08:05:35;6.32;;;0.95;;
50249;SDS011;36133;42.522;27.456;2022-09-12T08:08:01;4.13;;;1.08;;
50249;SDS011;36133;42.522;27.456;2022-09-12T08:10:27;2.42;;;1.20;;
50249;SDS011;36133;42.522;27.456;2022-09-12T08:12:53;2.65;;;1.20;;
50249;SDS011;36133;42.522;27.456;2022-09-12T08:15:19;1.88;;;1.10;;
50249;SDS011;36133;42.522;27.456;2022-09-12T08:17:44;1.98;;;1.30;;
50249;SDS011;36133;42.522;27.456;2022-09-12T08:20:10;2.97;;;1.10;;
50249;SDS011;36133;42.522;27.456;2022-09-12T08:22:36;3.28;;;1.50;;
50249;SDS011;36133;42.522;27.456;2022-09-12T08:25:02;5.70;;;1.13;;
50249;SDS011;36133;42.522;27.456;2022-09-12T08:27:28;4.22;;;1.50;;
50249;SDS011;36133;42.522;27.456;2022-09-12T08:29:57;1.70;;;0.90;;
50249;SDS011;36133;42.522;27.456;2022-09-12T08:32:22;1.88;;;1.02;;
50249;SDS011;36133;42.522;27.456;2022-09-12T08:34:48;2.20;;;1.27;;
50249;SDS011;36133;42.522;27.456;2022-09-12T08:37:13;2.83;;;0.90;;
50249;SDS011;36133;42.522;27.456;2022-09-12T08:39:39;2.20;;;1.02;;
50249;SDS011;36133;42.522;27.456;2022-09-12T08:42:05;2.10;;;1.20;;
50249;SDS011;36133;42.522;27.456;2022-09-12T08:44:53;0.95;;;0.85;;
50249;SDS011;36133;42.522;27.456;2022-09-12T08:47:39;4.00;;;1.20;;
50249;SDS011;36133;42.522;27.456;2022-09-12T08:55:33;2.35;;;1.35;;
50249;SDS011;36133;42.522;27.456;2022-09-12T08:58:00;1.83;;;0.93;;
50249;SDS011;36133;42.522;27.456;2022-09-12T09:00:39;1.33;;;1.00;;
50249;SDS011;36133;42.522;27.456;2022-09-12T09:14:49;2.17;;;1.00;;
50249;SDS011;36133;42.522;27.456;2022-09-12T09:17:45;2.28;;;1.13;;
50249;SDS011;36133;42.522;27.456;2022-09-12T09:20:21;1.08;;;0.70;;
50249;SDS011;36133;42.522;27.456;2022-09-12T09:22:58;4.70;;;1.17;;
50249;SDS011;36133;42.522;27.456;2022-09-12T09:25:37;1.17;;;0.70;;
50249;SDS011;36133;42.522;27.456;2022-09-12T09:28:21;3.65;;;1.50;;
50249;SDS011;36133;42.522;27.456;2022-09-12T09:30:55;3.65;;;0.90;;
50249;SDS011;36133;42.522;27.456;2022-09-12T09:33:27;3.90;;;0.85;;
50249;SDS011;36133;42.522;27.456;2022-09-12T09:41:41;3.05;;;0.90;;
50249;SDS011;36133;42.522;27.456;2022-09-12T09:44:20;0.95;;;0.60;;
50249;SDS011;36133;42.522;27.456;2022-09-12T09:46:48;1.80;;;1.10;;
50249;SDS011;36133;42.522;27.456;2022-09-12T09:49:18;1.98;;;1.10;;
50249;SDS011;36133;42.522;27.456;2022-09-12T09:51:44;2.17;;;1.10;;
50249;SDS011;36133;42.522;27.456;2022-09-12T09:54:21;2.38;;;1.00;;
50249;SDS011;36133;42.522;27.456;2022-09-12T09:56:55;3.72;;;0.90;;
50249;SDS011;36133;42.522;27.456;2022-09-12T09:59:28;2.70;;;1.00;;
50249;SDS011;36133;42.522;27.456;2022-09-12T10:01:56;4.15;;;1.20;;
50249;SDS011;36133;42.522;27.456;2022-09-12T10:04:39;4.97;;;1.25;;
50249;SDS011;36133;42.522;27.456;2022-09-12T10:07:10;3.13;;;0.80;;
50249;SDS011;36133;42.522;27.456;2022-09-12T10:09:44;3.03;;;0.82;;
50249;SDS011;36133;42.522;27.456;2022-09-12T10:12:39;1.35;;;0.70;;
50249;SDS011;36133;42.522;27.456;2022-09-12T10:15:17;1.70;;;0.80;;
50249;SDS011;36133;42.522;27.456;2022-09-12T10:17:44;2.47;;;0.80;;
50249;SDS011;36133;42.522;27.456;2022-09-12T10:20:31;4.25;;;1.13;;
50249;SDS011;36133;42.522;27.456;2022-09-12T10:23:28;2.55;;;1.05;;
50249;SDS011;36133;42.522;27.456;2022-09-12T10:26:02;1.83;;;0.77;;
50249;SDS011;36133;42.522;27.456;2022-09-12T10:28:52;3.08;;;0.70;;
50249;SDS011;36133;42.522;27.456;2022-09-12T10:31:27;5.25;;;0.88;;
50249;SDS011;36133;42.522;27.456;2022-09-12T10:33:59;3.10;;;0.80;;
50249;SDS011;36133;42.522;27.456;2022-09-12T10:36:36;1.75;;;0.70;;
50249;SDS011;36133;42.522;27.456;2022-09-12T10:39:04;3.05;;;0.60;;
50249;SDS011;36133;42.522;27.456;2022-09-12T10:41:37;1.77;;;0.80;;
50249;SDS011;36133;42.522;27.456;2022-09-12T10:44:22;1.65;;;1.08;;
50249;SDS011;36133;42.522;27.456;2022-09-12T10:46:52;1.55;;;0.70;;
50249;SDS011;36133;42.522;27.456;2022-09-12T10:49:29;3.55;;;0.70;;
50249;SDS011;36133;42.522;27.456;2022-09-12T10:51:56;1.33;;;0.95;;
50249;SDS011;36133;42.522;27.456;2022-09-12T10:54:40;3.17;;;0.88;;
50249;SDS011;36133;42.522;27.456;2022-09-12T11:00:03;1.10;;;0.60;;
50249;SDS011;36133;42.522;27.456;2022-09-12T11:03:01;2.45;;;0.68;;
50249;SDS011;36133;42.522;27.456;2022-09-12T11:05:38;2.00;;;0.80;;
50249;SDS011;36133;42.522;27.456;2022-09-12T11:08:14;2.95;;;1.05;;
50249;SDS011;36133;42.522;27.456;2022-09-12T11:11:05;5.55;;;1.30;;
50249;SDS011;36133;42.522;27.456;2022-09-12T11:30:23;4.55;;;0.95;;
50249;SDS011;36133;42.522;27.456;2022-09-12T11:35:42;1.90;;;0.90;;
50249;SDS011;36133;42.522;27.456;2022-09-12T11:41:08;1.98;;;0.52;;
50249;SDS011;36133;42.522;27.456;2022-09-12T11:43:42;5.85;;;1.08;;
50249;SDS011;36133;42.522;27.456;2022-09-12T11:46:20;1.77;;;0.77;;
50249;SDS011;36133;42.522;27.456;2022-09-12T11:54:27;1.40;;;0.93;;
50249;SDS011;36133;42.522;27.456;2022-09-12T11:56:58;1.40;;;0.55;;
50249;SDS011;36133;42.522;27.456;2022-09-12T11:59:39;2.88;;;0.40;;
50249;SDS011;36133;42.522;27.456;2022-09-12T12:02:11;1.27;;;0.70;;
50249;SDS011;36133;42.522;27.456;2022-09-12T12:04:50;1.17;;;0.70;;
50249;SDS011;36133;42.522;27.456;2022-09-12T12:07:25;1.08;;;0.43;;
50249;SDS011;36133;42.522;27.456;2022-09-12T12:10:02;0.60;;;0.40;;
50249;SDS011;36133;42.522;27.456;2022-09-12T12:12:29;2.10;;;0.80;;
50249;SDS011;36133;42.522;27.456;2022-09-12T12:14:55;2.50;;;0.50;;
50249;SDS011;36133;42.522;27.456;2022-09-12T12:17:23;2.08;;;0.50;;
50249;SDS011;36133;42.522;27.456;2022-09-12T12:20:03;2.67;;;0.90;;
50249;SDS011;36133;42.522;27.456;2022-09-12T12:22:29;1.67;;;0.60;;
50249;SDS011;36133;42.522;27.456;2022-09-12T12:58:01;2.10;;;0.70;;
50249;SDS011;36133;42.522;27.456;2022-09-12T13:03:05;0.90;;;0.60;;
50249;SDS011;36133;42.522;27.456;2022-09-12T13:05:56;0.65;;;0.40;;
50249;SDS011;36133;42.522;27.456;2022-09-12T13:08:27;3.80;;;0.77;;
50249;SDS011;36133;42.522;27.456;2022-09-12T13:11:00;0.80;;;0.50;;
50249;SDS011;36133;42.522;27.456;2022-09-12T13:13:37;1.55;;;0.60;;
50249;SDS011;36133;42.522;27.456;2022-09-12T13:16:27;1.88;;;0.50;;
50249;SDS011;36133;42.522;27.456;2022-09-12T13:19:10;0.38;;;0.38;;
50249;SDS011;36133;42.522;27.456;2022-09-12T13:21:56;0.50;;;0.40;;
50249;SDS011;36133;42.522;27.456;2022-09-12T13:24:25;0.93;;;0.55;;
50249;SDS011;36133;42.522;27.456;2022-09-12T13:26:50;1.95;;;0.52;;
50249;SDS011;36133;42.522;27.456;2022-09-12T13:29:21;3.28;;;0.60;;
50249;SDS011;36133;42.522;27.456;2022-09-12T13:31:49;1.55;;;0.70;;
50249;SDS011;36133;42.522;27.456;2022-09-12T13:34:24;2.13;;;0.77;;
50249;SDS011;36133;42.522;27.456;2022-09-12T13:45:22;1.05;;;0.70;;
50249;SDS011;36133;42.522;27.456;2022-09-12T13:47:59;2.10;;;0.63;;
50249;SDS011;36133;42.522;27.456;2022-09-12T13:50:27;3.70;;;0.98;;
50249;SDS011;36133;42.522;27.456;2022-09-12T13:53:03;2.88;;;0.70;;
50249;SDS011;36133;42.522;27.456;2022-09-12T13:58:03;1.88;;;0.93;;
50249;SDS011;36133;42.522;27.456;2022-09-12T14:00:33;1.38;;;0.80;;
50249;SDS011;36133;42.522;27.456;2022-09-12T14:03:00;1.35;;;1.10;;
50249;SDS011;36133;42.522;27.456;2022-09-12T14:05:46;1.08;;;0.90;;
50249;SDS011;36133;42.522;27.456;2022-09-12T14:08:19;2.88;;;1.77;;
50249;SDS011;36133;42.522;27.456;2022-09-12T14:10:47;4.97;;;1.92;;
50249;SDS011;36133;42.522;27.456;2022-09-12T14:13:19;2.22;;;0.95;;
50249;SDS011;36133;42.522;27.456;2022-09-12T14:15:48;2.10;;;1.13;;
50249;SDS011;36133;42.522;27.456;2022-09-12T14:18:26;1.70;;;1.10;;
50249;SDS011;36133;42.522;27.456;2022-09-12T14:20:55;5.05;;;1.33;;
50249;SDS011;36133;42.522;27.456;2022-09-12T14:23:29;2.75;;;1.10;;
50249;SDS011;36133;42.522;27.456;2022-09-12T14:25:57;1.92;;;1.08;;
50249;SDS011;36133;42.522;27.456;2022-09-12T14:28:26;2.75;;;1.10;;
50249;SDS011;36133;42.522;27.456;2022-09-12T14:31:02;1.70;;;1.10;;
50249;SDS011;36133;42.522;27.456;2022-09-12T14:33:50;1.70;;;1.00;;
50249;SDS011;36133;42.522;27.456;2022-09-12T14:36:18;2.88;;;1.20;;
50249;SDS011;36133;42.522;27.456;2022-09-12T14:38:55;1.63;;;0.80;;
50249;SDS011;36133;42.522;27.456;2022-09-12T14:41:26;1.25;;;0.80;;
50249;SDS011;36133;42.522;27.456;2022-09-12T14:43:57;7.57;;;1.13;;
50249;SDS011;36133;42.522;27.456;2022-09-12T14:46:35;2.03;;;1.10;;
50249;SDS011;36133;42.522;27.456;2022-09-12T14:49:11;2.30;;;1.02;;
50249;SDS011;36133;42.522;27.456;2022-09-12T14:56:55;3.78;;;1.00;;
50249;SDS011;36133;42.522;27.456;2022-09-12T15:09:45;0.80;;;0.70;;
50249;SDS011;36133;42.522;27.456;2022-09-12T15:12:11;1.10;;;0.90;;
50249;SDS011;36133;42.522;27.456;2022-09-12T15:14:36;2.63;;;0.93;;
50249;SDS011;36133;42.522;27.456;2022-09-12T15:17:02;0.65;;;0.60;;
50249;SDS011;36133;42.522;27.456;2022-09-12T15:19:28;2.40;;;0.82;;
50249;SDS011;36133;42.522;27.456;2022-09-12T15:21:54;1.98;;;0.90;;
50249;SDS011;36133;42.522;27.456;2022-09-12T15:24:21;1.10;;;0.82;;
50249;SDS011;36133;42.522;27.456;2022-09-12T15:26:46;3.15;;;0.98;;
50249;SDS011;36133;42.522;27.456;2022-09-12T15:29:12;0.75;;;0.75;;
50249;SDS011;36133;42.522;27.456;2022-09-12T15:31:37;2.72;;;1.00;;
50249;SDS011;36133;42.522;27.456;2022-09-12T15:34:04;1.67;;;0.90;;
50249;SDS011;36133;42.522;27.456;2022-09-12T15:36:30;1.00;;;0.80;;
50249;SDS011;36133;42.522;27.456;2022-09-12T15:38:55;1.67;;;0.95;;
50249;SDS011;36133;42.522;27.456;2022-09-12T15:41:24;5.18;;;0.80;;
50249;SDS011;36133;42.522;27.456;2022-09-12T15:43:55;1.95;;;1.63;;
50249;SDS011;36133;42.522;27.456;2022-09-12T15:46:24;2.75;;;0.82;;
50249;SDS011;36133;42.522;27.456;2022-09-12T15:48:50;4.47;;;0.82;;
50249;SDS011;36133;42.522;27.456;2022-09-12T15:51:16;1.77;;;0.80;;
50249;SDS011;36133;42.522;27.456;2022-09-12T15:53:43;2.13;;;0.95;;
50249;SDS011;36133;42.522;27.456;2022-09-12T15:56:10;1.90;;;0.80;;
50249;SDS011;36133;42.522;27.456;2022-09-12T15:58:36;5.53;;;1.10;;
50249;SDS011;36133;42.522;27.456;2022-09-12T16:01:02;1.25;;;1.15;;
50249;SDS011;36133;42.522;27.456;2022-09-12T16:03:29;3.10;;;1.30;;
50249;SDS011;36133;42.522;27.456;2022-09-12T16:05:57;3.65;;;1.40;;
50249;SDS011;36133;42.522;27.456;2022-09-12T16:08:25;1.50;;;1.10;;
50249;SDS011;36133;42.522;27.456;2022-09-12T16:10:52;2.53;;;1.40;;
50249;SDS011;36133;42.522;27.456;2022-09-12T16:13:20;2.65;;;1.20;;
50249;SDS011;36133;42.522;27.456;2022-09-12T16:15:46;1.30;;;1.20;;
50249;SDS011;36133;42.522;27.456;2022-09-12T16:18:12;1.75;;;1.20;;
50249;SDS011;36133;42.522;27.456;2022-09-12T16:20:38;4.95;;;1.60;;
50249;SDS011;36133;42.522;27.456;2022-09-12T16:23:04;3.50;;;1.40;;
50249;SDS011;36133;42.522;27.456;2022-09-12T16:25:31;3.20;;;1.80;;
50249;SDS011;36133;42.522;27.456;2022-09-12T16:27:56;2.42;;;2.10;;
50249;SDS011;36133;42.522;27.456;2022-09-12T16:30:22;3.53;;;2.80;;
50249;SDS011;36133;42.522;27.456;2022-09-12T16:32:48;8.20;;;3.20;;
50249;SDS011;36133;42.522;27.456;2022-09-12T16:35:15;3.47;;;3.17;;
50249;SDS011;36133;42.522;27.456;2022-09-12T16:37:41;5.85;;;3.30;;
50249;SDS011;36133;42.522;27.456;2022-09-12T16:40:07;5.63;;;3.47;;
50249;SDS011;36133;42.522;27.456;2022-09-12T16:42:33;8.18;;;3.30;;
50249;SDS011;36133;42.522;27.456;2022-09-12T16:44:59;5.03;;;3.10;;
50249;SDS011;36133;42.522;27.456;2022-09-12T16:47:25;2.85;;;2.53;;
50249;SDS011;36133;42.522;27.456;2022-09-12T16:49:51;3.97;;;2.60;;
50249;SDS011;36133;42.522;27.456;2022-09-12T16:52:17;3.53;;;2.25;;
50249;SDS011;36133;42.522;27.456;2022-09-12T16:54:43;7.03;;;2.50;;
50249;SDS011;36133;42.522;27.456;2022-09-12T16:57:09;2.53;;;1.95;;
50249;SDS011;36133;42.522;27.456;2022-09-12T16:59:35;8.55;;;1.80;;
50249;SDS011;36133;42.522;27.456;2022-09-12T17:02:01;5.80;;;2.22;;
50249;SDS011;36133;42.522;27.456;2022-09-12T17:04:27;4.38;;;2.17;;
50249;SDS011;36133;42.522;27.456;2022-09-12T17:06:53;2.25;;;1.92;;
50249;SDS011;36133;42.522;27.456;2022-09-12T17:09:18;3.08;;;2.40;;
50249;SDS011;36133;42.522;27.456;2022-09-12T17:11:45;3.60;;;1.98;;
50249;SDS011;36133;42.522;27.456;2022-09-12T17:14:12;6.65;;;1.95;;
50249;SDS011;36133;42.522;27.456;2022-09-12T17:16:39;6.05;;;2.25;;
50249;SDS011;36133;42.522;27.456;2022-09-12T17:19:10;2.35;;;1.98;;
50249;SDS011;36133;42.522;27.456;2022-09-12T17:21:41;8.68;;;2.03;;
50249;SDS011;36133;42.522;27.456;2022-09-12T17:24:08;4.68;;;1.92;;
50249;SDS011;36133;42.522;27.456;2022-09-12T17:26:36;3.28;;;2.10;;
50249;SDS011;36133;42.522;27.456;2022-09-12T17:29:03;3.92;;;2.00;;
50249;SDS011;36133;42.522;27.456;2022-09-12T17:31:29;2.35;;;1.88;;
50249;SDS011;36133;42.522;27.456;2022-09-12T17:33:58;3.85;;;1.95;;
50249;SDS011;36133;42.522;27.456;2022-09-12T17:36:25;4.28;;;2.00;;
50249;SDS011;36133;42.522;27.456;2022-09-12T17:38:52;4.68;;;2.10;;